Terminal Aerodrome Forecast
Issued by NWS Wilmington, NC

Home | Current Version | Previous Version | Text Only | Print | Product List | Glossary On
Versions: 1 2 3 4 5 6 7 8 9 10 11 12 13 14 15
398
FTUS42 KILM 041136
TAFLBT
TAF
KLBT 041136Z 0412/0512 06006KT P6SM VCSH OVC070
      TEMPO 0412/0415 P6SM -RA OVC050
     FM041800 06006KT 6SM -RA SCT025 OVC070
     FM042200 06007KT 4SM -RA BKN020 OVC050
     FM050200 07006KT 3SM -RA BR BKN007 OVC015
     FM050900 01004KT 4SM -RA BR BKN003 OVC007=

USA.gov is the U.S. government's official web portal to all federal, state and local government web resources and services.